aviador You're here:

KDTO Decoded Metar

DENTON in TX, USA
Report Time2017-08-16 18:53:00
UTC Time2017-08-16 19:26:57
Flight Rules vfr VFR
Wind220° at 09 kt
W.Decomp.*RWY 18: 7.3 kt HW 5.3 kt RCW
W.Rank220° ranks 25
Current wind is above 220° avg. (7.9)
Visibility9999 m
Phenomena:N/A
Clouds:Scattered 037 Hf
Expected CloudBase > 3,200 ft AGL from Temp-Dew spread
CeilingNone
Temp32°C (ISA +18)
Dew Point24°C (63% RH)
Heat Index38.0°C
QNH1013 hPa
Density Alt3,120 ft
Elevation643 ft
Report Wrong Elevation
Raw Report
METAR KDTO 161853Z 22009KT 10SM SCT037 32/24 A2991 RMK AO2 SLP118 T03220239=

Extra information for KDTO:More info

Metar Taf Metar & Taf Last 4 Metars F.Rules Stats Wind Profile Meteogram Temp Stats Airport Information Weather charts Add Link Nearby VenuesMetar ALERT Operation Metar Decoded Social comments

AIRNAV info for KDTO